Погода Зарышинна 2 недели

Малопольское воеводство, Польша

24 мая-06 июня
  • 24мая
    Сегодня
    +11°
    +25°
    Небольшая облачность
    ВремяПогодаТемператураВлажностьДавлениеВетер, м/сВероятность осадков
    02:00Облачно с прояснениями+15°C95 %740 мм0.8 м/с30 %
    05:00Пасмурно, сплошная облачность+13°C100 %740 мм1.5 м/с11 %
    08:00Небольшая облачность+17°C87 %741 мм1.9 м/с11 %
    11:00Ясно и безоблачно+22°C69 %742 мм3.3 м/с8 %
    14:00Небольшая облачность+24°C57 %741 мм4.0 м/с8 %
    17:00Облачно с прояснениями+20°C82 %741 мм2.6 м/с48 %
    20:00Ясно и безоблачно+19°C88 %741 мм1.8 м/с27 %
    23:00Ясно и безоблачно+16°C90 %741 мм2.7 м/с2 %
  • 25мая
    Суббота
    +11°
    +24°
    Небольшая облачность
    ВремяПогодаТемператураВлажностьДавлениеВетер, м/сВероятность осадков
    02:00Ясно и безоблачно+14°C90 %741 мм2.5 м/с2 %
    05:00Ясно и безоблачно+11°C96 %741 мм1.8 м/с2 %
    08:00Небольшая облачность+17°C84 %742 мм0.6 м/с2 %
    11:00Облачно с прояснениями+22°C62 %742 мм1.0 м/с10 %
    14:00Небольшая облачность+23°C59 %741 мм2.4 м/с27 %
    17:00Небольшая облачность, возможен дождь с грозой+21°C68 %741 мм4.3 м/с34 %
    20:00Практически безоблачно+19°C87 %741 мм1.4 м/с19 %
    23:00Практически безоблачно+16°C85 %741 мм2.3 м/с2 %
  • 26мая
    Воскресенье
    +11°
    +26°
    Ясно и безоблачно
    ВремяПогодаТемператураВлажностьДавлениеВетер, м/сВероятность осадков
    02:00Практически безоблачно+12°C94 %740 мм2.3 м/с2 %
    05:00Ясно и безоблачно+11°C96 %741 мм1.9 м/с2 %
    08:00Ясно и безоблачно+18°C82 %742 мм1.3 м/с2 %
    11:00Облачно с прояснениями+24°C55 %742 мм2.2 м/с2 %
    14:00Ясно и безоблачно+25°C42 %742 мм2.9 м/с16 %
    17:00Небольшая облачность+23°C53 %742 мм3.0 м/с33 %
    20:00Практически безоблачно+20°C78 %742 мм1.9 м/с17 %
    23:00Ясно и безоблачно+16°C87 %742 мм2.6 м/с2 %
  • 27мая
    Понедельник
    +11°
    +25°
    Ясно и безоблачно
    ВремяПогодаТемператураВлажностьДавлениеВетер, м/сВероятность осадков
    02:00Ясно и безоблачно+13°C91 %742 мм2.3 м/с2 %
    05:00Практически безоблачно+11°C91 %742 мм2.4 м/с2 %
    08:00Облачно с прояснениями+18°C73 %742 мм1.5 м/с2 %
    11:00Небольшая облачность+23°C49 %742 мм2.5 м/с8 %
    14:00Ясно и безоблачно+24°C33 %742 мм4.3 м/с13 %
    17:00Ясно и безоблачно+25°C31 %740 мм4.4 м/с13 %
    20:00Ясно и безоблачно+21°C46 %741 мм3.1 м/с4 %
    23:00Ясно и безоблачно+16°C49 %741 мм2.8 м/с2 %
  • 28мая
    Вторник
    +10°
    +24°
    Облачно с прояснениями
    ВремяПогодаТемператураВлажностьДавлениеВетер, м/сВероятность осадков
    02:00Ясно и безоблачно+13°C63 %740 мм2.7 м/с2 %
    05:00Ясно и безоблачно+12°C68 %740 мм3.5 м/с2 %
    08:00Ясно и безоблачно+18°C54 %740 мм3.6 м/с2 %
    11:00Практически безоблачно+23°C39 %741 мм4.0 м/с2 %
    14:00Облачно с прояснениями+22°C36 %740 мм4.9 м/с3 %
    17:00Небольшая облачность+23°C35 %739 мм4.3 м/с2 %
    20:00Практически безоблачно+21°C46 %739 мм3.0 м/с2 %
    23:00Небольшая облачность+16°C62 %739 мм2.4 м/с2 %
Мы используем cookies
Соглашаюсь